Time;durP1;ratioP1;P1;durP2;ratioP2;P2;SDS_P1;SDS_P2;PMS_P1;PMS_P2;Temp;Humidity;BMP_temperature;BMP_pressure;BME280_temperature;BME280_humidity;BME280_pressure;Samples;Min_cycle;Max_cycle;Signal;HPM_P1;HPM_P2
2022/08/05 00:00:26;;;;;;;2.00;0.55;;;;;;;19.66;46.90;101001.44;5075241;28;20032;-83
2022/08/05 00:02:51;;;;;;;1.90;0.22;;;;;;;19.76;46.91;100996.91;5075616;28;20478;-83
2022/08/05 00:05:17;;;;;;;2.25;0.63;;;;;;;19.73;47.12;101002.56;5065026;28;20434;-83
2022/08/05 00:07:43;;;;;;;1.33;0.38;;;;;;;19.56;46.49;101001.47;5055029;28;20552;-83
2022/08/05 00:10:08;;;;;;;2.70;0.70;;;;;;;19.79;46.61;101006.47;5053831;28;20025;-83
2022/08/05 00:12:33;;;;;;;2.88;0.52;;;;;;;19.55;47.07;101007.81;5055182;28;20087;-83
2022/08/05 00:14:59;;;;;;;3.85;0.40;;;;;;;19.62;47.13;100997.41;5055040;28;20386;-83
2022/08/05 00:17:24;;;;;;;4.25;0.80;;;;;;;19.66;47.34;101004.09;5054832;28;20052;-83
2022/08/05 00:19:50;;;;;;;2.55;0.63;;;;;;;19.82;46.91;101003.47;5054342;28;20063;-83
2022/08/05 00:22:15;;;;;;;1.13;0.40;;;;;;;19.75;47.46;101005.91;5055067;28;20033;-83
2022/08/05 00:24:40;;;;;;;2.50;0.40;;;;;;;19.62;47.67;101008.88;5054966;28;20025;-84
2022/08/05 00:27:06;;;;;;;2.92;0.40;;;;;;;19.33;48.33;101010.84;5054900;28;20490;-84
2022/08/05 00:29:31;;;;;;;3.13;0.35;;;;;;;19.44;47.85;101009.84;5054444;28;20037;-84
2022/08/05 00:31:57;;;;;;;1.73;0.30;;;;;;;19.30;48.60;101006.66;5054759;28;20025;-84
2022/08/05 00:34:22;;;;;;;2.13;0.40;;;;;;;19.58;48.30;101004.00;5061136;28;20119;-84
2022/08/05 00:36:47;;;;;;;3.92;0.88;;;;;;;19.40;48.51;101002.13;5074774;28;20047;-84
2022/08/05 00:39:13;;;;;;;1.50;0.40;;;;;;;18.97;49.76;101000.88;5074834;28;20040;-84
2022/08/05 00:41:38;;;;;;;5.72;0.73;;;;;;;18.92;49.65;101008.47;5073314;28;20021;-84
2022/08/05 00:44:04;;;;;;;9.48;0.77;;;;;;;19.20;49.34;101013.84;5074480;28;20028;-84
2022/08/05 00:46:30;;;;;;;3.28;0.80;;;;;;;18.94;49.64;101016.31;5074495;28;20039;-83
2022/08/05 00:48:55;;;;;;;2.78;0.40;;;;;;;19.21;49.52;101016.38;5066793;28;20021;-83
2022/08/05 00:51:21;;;;;;;4.85;0.75;;;;;;;19.13;49.45;101016.25;5054503;28;20474;-84
2022/08/05 00:53:47;;;;;;;6.13;0.60;;;;;;;19.27;49.60;101017.59;5054375;28;20021;-83
2022/08/05 00:56:15;;;;;;;5.97;0.50;;;;;;;19.51;49.52;101021.56;5054006;28;20036;-83
2022/08/05 00:58:41;;;;;;;3.85;0.80;;;;;;;19.51;49.21;101024.22;5054234;28;20106;-83
2022/08/05 01:01:06;;;;;;;1.63;0.30;;;;;;;19.57;49.18;101028.97;5053993;28;20075;-83
2022/08/05 01:03:32;;;;;;;1.70;0.63;;;;;;;19.33;50.45;101025.03;5057860;28;20246;-83
2022/08/05 01:05:57;;;;;;;2.67;0.77;;;;;;;19.39;50.14;101020.91;5074179;28;20024;-83
2022/08/05 01:08:22;;;;;;;2.13;0.40;;;;;;;18.80;50.87;101014.94;5074130;28;20428;-83
2022/08/05 01:10:53;;;;;;;5.45;0.75;;;;;;;18.68;51.32;101016.91;5073938;28;20413;-83
2022/08/05 01:13:38;;;;;;;2.63;0.40;;;;;;;18.63;51.80;101025.28;5074010;28;20082;-83
2022/08/05 01:16:08;;;;;;;1.42;0.40;;;;;;;18.71;51.66;101015.75;5074089;28;20032;-83
2022/08/05 01:18:39;;;;;;;1.40;0.40;;;;;;;18.70;52.46;101017.59;5066155;28;20485;-83
2022/08/05 01:21:25;;;;;;;2.70;0.32;;;;;;;18.75;51.84;101023.31;5053672;28;20493;-84
2022/08/05 01:24:36;;;;;;;2.95;0.30;;;;;;;18.75;52.81;101028.63;5053876;28;20108;-83
2022/08/05 01:27:38;;;;;;;3.92;0.73;;;;;;;18.71;53.15;101040.53;5048144;28;20115;-83
2022/08/05 01:30:04;;;;;;;2.85;0.35;;;;;;;18.42;53.37;101040.53;5053534;28;20040;-83
2022/08/05 01:32:33;;;;;;;2.67;0.40;;;;;;;18.48;53.99;101039.16;5053273;28;20029;-83
2022/08/05 01:35:08;;;;;;;4.10;0.47;;;;;;;18.41;54.58;101039.72;5073725;28;20020;-83
2022/08/05 01:37:44;;;;;;;2.15;0.50;;;;;;;18.43;53.04;101037.75;5073672;28;20032;-83
2022/08/05 01:40:11;;;;;;;6.15;0.40;;;;;;;18.10;53.75;101043.47;5073368;28;20024;-83
2022/08/05 01:42:39;;;;;;;3.70;0.90;;;;;;;17.92;54.58;101040.63;5073822;28;20111;-83
2022/08/05 01:45:07;;;;;;;2.97;0.65;;;;;;;17.75;54.65;101045.59;5073511;28;20436;-83
2022/08/05 01:47:35;;;;;;;2.42;0.40;;;;;;;17.64;55.25;101043.03;5069880;28;20067;-83
2022/08/05 01:50:04;;;;;;;2.80;0.75;;;;;;;17.67;56.11;101053.38;5053174;28;20036;-83
2022/08/05 01:52:34;;;;;;;2.17;0.60;;;;;;;17.48;56.38;101048.84;5053265;28;20024;-83
2022/08/05 01:55:04;;;;;;;2.85;0.85;;;;;;;17.53;56.29;101049.28;5053112;28;20108;-83
2022/08/05 01:57:40;;;;;;;0.90;0.45;;;;;;;17.57;56.85;101052.50;5053401;28;20138;-83
2022/08/05 02:00:09;;;;;;;1.48;0.55;;;;;;;17.88;56.31;101055.16;5053172;28;20120;-83
2022/08/05 02:02:36;;;;;;;1.45;0.60;;;;;;;17.76;55.66;101060.56;5053513;28;20382;-83
2022/08/05 02:05:07;;;;;;;2.00;0.82;;;;;;;17.64;56.16;101066.94;5053024;28;20036;-83
2022/08/05 02:07:34;;;;;;;3.83;0.75;;;;;;;17.72;55.83;101056.47;5052400;28;20100;-83
2022/08/05 02:10:00;;;;;;;4.57;0.93;;;;;;;17.54;56.37;101071.38;5051614;28;20037;-83
2022/08/05 02:12:57;;;;;;;3.97;0.63;;;;;;;17.59;55.60;101064.66;5053138;28;20494;-82
2022/08/05 02:15:29;;;;;;;2.42;0.65;;;;;;;17.68;55.83;101063.03;5052983;28;20067;-83
2022/08/05 02:18:05;;;;;;;1.58;0.52;;;;;;;17.57;56.55;101063.97;5052256;28;20498;-83
2022/08/05 02:20:38;;;;;;;4.53;0.65;;;;;;;17.58;56.30;101062.16;5052569;28;20391;-82
2022/08/05 02:23:07;;;;;;;1.67;0.50;;;;;;;17.40;57.14;101068.09;5052586;28;20027;-82
2022/08/05 02:25:35;;;;;;;2.85;0.63;;;;;;;17.48;56.82;101070.09;5052712;28;20104;-83
2022/08/05 02:28:03;;;;;;;7.65;2.13;;;;;;;17.26;57.35;101071.09;5052719;28;20074;-83
2022/08/05 02:30:41;;;;;;;1.00;0.60;;;;;;;16.95;58.60;101065.75;5052729;28;20124;-82
2022/08/05 02:33:09;;;;;;;6.00;0.80;;;;;;;16.55;60.08;101070.88;5052584;28;20028;-83
2022/08/05 02:35:37;;;;;;;2.45;0.50;;;;;;;16.74;59.87;101081.59;5052560;28;20035;-83
2022/08/05 02:38:03;;;;;;;2.47;0.50;;;;;;;16.75;59.95;101074.50;5052448;28;20078;-83
2022/08/05 02:40:31;;;;;;;2.80;0.82;;;;;;;16.82;59.99;101081.88;5052194;28;20025;-83
2022/08/05 02:42:59;;;;;;;2.88;0.60;;;;;;;16.83;60.34;101072.91;5051708;28;20045;-83
2022/08/05 02:45:26;;;;;;;3.85;0.65;;;;;;;16.51;61.07;101077.38;5052216;28;20035;-83
2022/08/05 02:47:54;;;;;;;3.78;0.90;;;;;;;16.91;60.37;101069.63;5052355;28;20576;-83
2022/08/05 02:50:21;;;;;;;3.55;0.40;;;;;;;16.76;60.40;101079.66;5052150;28;20103;-83
2022/08/05 02:52:47;;;;;;;4.38;0.52;;;;;;;16.52;61.72;101074.59;5052015;28;20021;-82
2022/08/05 02:55:14;;;;;;;1.67;0.60;;;;;;;16.60;61.76;101074.78;5052100;28;20434;-83
2022/08/05 02:57:40;;;;;;;3.17;0.60;;;;;;;16.64;61.58;101076.22;5051534;28;21154;-83
2022/08/05 03:00:07;;;;;;;3.38;0.75;;;;;;;16.46;62.34;101078.59;5051998;28;20021;-82
2022/08/05 03:02:36;;;;;;;4.90;0.77;;;;;;;16.38;63.60;101080.19;5052321;28;20025;-83
2022/08/05 03:05:03;;;;;;;4.35;1.05;;;;;;;16.33;63.46;101071.75;5052158;28;20471;-83
2022/08/05 03:07:30;;;;;;;3.35;0.60;;;;;;;16.33;63.88;101075.28;5052033;28;20056;-83
2022/08/05 03:09:56;;;;;;;6.28;0.88;;;;;;;16.24;64.06;101083.97;5051558;28;20483;-82
2022/08/05 03:12:38;;;;;;;4.45;0.63;;;;;;;16.55;63.72;101084.97;5055701;28;20032;-82
2022/08/05 03:15:06;;;;;;;1.40;0.50;;;;;;;16.20;65.28;101088.66;5051673;28;20035;-83
2022/08/05 03:17:32;;;;;;;3.92;0.77;;;;;;;16.09;65.55;101086.03;5051876;28;20033;-83
2022/08/05 03:19:57;;;;;;;3.58;0.70;;;;;;;16.02;66.11;101084.88;5050851;28;20519;-83
2022/08/05 03:22:23;;;;;;;1.20;0.43;;;;;;;16.11;66.12;101080.63;5051637;28;20021;-83
2022/08/05 03:24:50;;;;;;;3.75;0.90;;;;;;;16.16;66.08;101086.41;5051783;28;20021;-83
2022/08/05 03:27:16;;;;;;;3.63;0.85;;;;;;;16.05;66.48;101089.91;5052104;28;20510;-83
2022/08/05 03:29:41;;;;;;;6.72;1.42;;;;;;;16.18;66.03;101090.59;5071645;28;20036;-83
2022/08/05 03:32:07;;;;;;;4.13;0.95;;;;;;;15.93;66.98;101090.88;5071761;28;20031;-83
2022/08/05 03:34:33;;;;;;;5.50;1.50;;;;;;;15.90;67.56;101091.97;5071882;28;20028;-83
2022/08/05 03:36:59;;;;;;;5.00;0.80;;;;;;;15.91;67.54;101090.16;5071541;28;20028;-83
2022/08/05 03:39:25;;;;;;;6.40;0.95;;;;;;;15.93;67.88;101094.38;5071532;28;20024;-83
2022/08/05 03:41:50;;;;;;;9.88;0.63;;;;;;;15.91;67.58;101092.81;5071213;28;20070;-83
2022/08/05 03:44:15;;;;;;;2.42;0.57;;;;;;;15.70;68.96;101090.88;5066405;28;20021;-83
2022/08/05 03:46:41;;;;;;;1.63;0.73;;;;;;;15.53;69.63;101091.34;5051513;28;20017;-83
2022/08/05 03:49:06;;;;;;;5.88;0.65;;;;;;;15.65;69.60;101091.22;5051210;28;20040;-82
2022/08/05 03:51:37;;;;;;;1.73;0.70;;;;;;;15.75;68.88;101088.72;5051530;28;20028;-83
2022/08/05 03:54:11;;;;;;;2.45;0.50;;;;;;;15.72;69.72;101091.59;5051640;28;20021;-83
2022/08/05 03:56:36;;;;;;;2.22;0.38;;;;;;;15.50;70.37;101083.63;5050833;28;20033;-83
2022/08/05 03:59:18;;;;;;;4.03;0.70;;;;;;;15.41;71.54;101082.56;5071600;28;20036;-83
2022/08/05 04:01:47;;;;;;;2.05;1.08;;;;;;;15.51;70.79;101080.88;5071428;28;20028;-83
2022/08/05 04:04:14;;;;;;;2.00;1.00;;;;;;;15.13;72.31;101081.22;5071359;28;20416;-83
2022/08/05 04:06:40;;;;;;;2.40;0.63;;;;;;;15.49;71.19;101087.25;5071417;28;20522;-82
2022/08/05 04:09:06;;;;;;;3.50;0.70;;;;;;;15.38;71.47;101080.13;5071525;28;20071;-83
2022/08/05 04:11:36;;;;;;;3.88;0.80;;;;;;;15.32;72.61;101084.09;5068714;28;20494;-83
2022/08/05 04:14:03;;;;;;;4.68;0.75;;;;;;;15.14;73.12;101082.88;5051295;28;20040;-83
2022/08/05 04:16:29;;;;;;;3.17;0.50;;;;;;;15.06;74.80;101084.28;5051306;28;20098;-83
2022/08/05 04:18:54;;;;;;;3.53;0.73;;;;;;;15.10;74.36;101084.06;5051171;28;20029;-83
2022/08/05 04:21:19;;;;;;;4.00;0.73;;;;;;;15.05;75.14;101087.91;5051245;28;20074;-83
2022/08/05 04:23:45;;;;;;;2.30;0.60;;;;;;;15.09;75.60;101096.47;5051206;28;20107;-83
2022/08/05 04:26:14;;;;;;;2.40;1.00;;;;;;;15.27;74.95;101100.34;5051490;28;20029;-83
2022/08/05 04:28:39;;;;;;;3.08;0.60;;;;;;;15.21;75.32;101102.63;5071066;28;20040;-83
2022/08/05 04:31:05;;;;;;;3.15;1.00;;;;;;;15.23;75.04;101113.94;5072998;28;20021;-83
2022/08/05 04:33:31;;;;;;;4.03;0.88;;;;;;;15.25;75.27;101112.00;5074653;28;20052;-83
2022/08/05 04:35:56;;;;;;;1.50;0.70;;;;;;;15.19;76.10;101113.31;5074762;28;20029;-83
2022/08/05 04:38:21;;;;;;;5.00;0.80;;;;;;;15.11;76.98;101109.56;5073485;28;20016;-83
2022/08/05 04:40:47;;;;;;;2.72;0.93;;;;;;;15.10;77.65;101115.81;5073736;28;20467;-83
2022/08/05 04:43:12;;;;;;;3.25;1.00;;;;;;;15.25;77.11;101118.13;5074152;28;20035;-83
2022/08/05 04:45:38;;;;;;;1.80;0.60;;;;;;;15.35;76.81;101118.28;5074713;28;20032;-83
2022/08/05 04:48:04;;;;;;;2.20;0.52;;;;;;;15.52;76.74;101124.06;5073237;28;20382;-83
2022/08/05 04:50:30;;;;;;;2.20;0.75;;;;;;;15.46;76.15;101120.09;5074221;28;20032;-83
2022/08/05 04:52:55;;;;;;;5.38;0.90;;;;;;;15.28;77.13;101117.06;5074476;28;20059;-83
2022/08/05 04:55:21;;;;;;;2.65;0.80;;;;;;;15.45;76.06;101119.25;5074556;28;20071;-83
2022/08/05 04:57:46;;;;;;;1.88;0.50;;;;;;;15.49;76.08;101129.59;5073433;28;20036;-83
2022/08/05 05:00:12;;;;;;;5.18;0.90;;;;;;;15.39;76.75;101130.31;5074190;28;20032;-84
2022/08/05 05:02:37;;;;;;;4.13;0.70;;;;;;;15.32;76.68;101137.00;5074461;28;20036;-84
2022/08/05 05:05:04;;;;;;;2.58;0.70;;;;;;;15.42;76.71;101139.81;5074251;28;20028;-84
2022/08/05 05:07:30;;;;;;;1.75;0.60;;;;;;;15.43;77.43;101141.50;5074335;28;20086;-83
2022/08/05 05:09:55;;;;;;;4.82;0.75;;;;;;;15.42;76.06;101135.38;5073997;28;20031;-83
2022/08/05 05:12:21;;;;;;;7.78;1.27;;;;;;;15.24;77.84;101134.97;5056059;28;20028;-84
2022/08/05 05:14:46;;;;;;;3.95;0.90;;;;;;;15.37;77.54;101150.75;5053997;28;20025;-83
2022/08/05 05:17:11;;;;;;;4.78;0.68;;;;;;;15.34;77.37;101140.38;5053987;28;20135;-83
2022/08/05 05:19:38;;;;;;;3.78;0.60;;;;;;;15.39;77.41;101143.53;5053929;28;20032;-83
2022/08/05 05:22:03;;;;;;;1.70;0.68;;;;;;;15.35;77.45;101155.31;5052658;28;20021;-83
2022/08/05 05:24:29;;;;;;;1.25;0.60;;;;;;;15.47;77.43;101154.38;5053951;28;20120;-83
2022/08/05 05:26:54;;;;;;;3.38;0.85;;;;;;;15.51;77.68;101157.63;5068955;28;20028;-84
2022/08/05 05:29:19;;;;;;;5.95;1.00;;;;;;;15.52;77.77;101158.47;5073447;28;20048;-83
2022/08/05 05:31:45;;;;;;;1.67;0.70;;;;;;;15.50;78.42;101160.38;5073880;28;20028;-83
2022/08/05 05:34:10;;;;;;;3.13;0.77;;;;;;;15.58;77.79;101165.94;5073879;28;20032;-83
2022/08/05 05:36:35;;;;;;;5.72;0.95;;;;;;;15.58;77.91;101168.56;5073788;28;20035;-83
2022/08/05 05:39:01;;;;;;;3.90;0.90;;;;;;;15.60;79.09;101166.66;5073610;28;20039;-82
2022/08/05 05:41:26;;;;;;;2.47;0.73;;;;;;;15.64;78.49;101178.72;5057958;28;20107;-83
2022/08/05 05:43:51;;;;;;;5.32;0.90;;;;;;;15.67;77.97;101183.75;5053474;28;20113;-83
2022/08/05 05:46:17;;;;;;;1.90;0.70;;;;;;;15.70;78.37;101175.59;5053340;28;20441;-83
2022/08/05 05:48:43;;;;;;;2.90;0.60;;;;;;;15.80;78.53;101187.19;5053376;28;20048;-83
2022/08/05 05:51:08;;;;;;;1.92;0.80;;;;;;;15.81;77.96;101191.50;5053409;28;20471;-82
2022/08/05 05:53:33;;;;;;;2.45;0.98;;;;;;;15.87;77.97;101190.19;5052073;28;20021;-83
2022/08/05 05:55:59;;;;;;;5.35;0.52;;;;;;;15.93;78.19;101196.81;5065091;28;20372;-83
2022/08/05 05:58:24;;;;;;;1.25;0.60;;;;;;;15.89;78.73;101192.72;5073279;28;20040;-83
2022/08/05 06:00:49;;;;;;;2.45;0.73;;;;;;;15.94;78.63;101194.06;5073123;28;20107;-83
2022/08/05 06:03:15;;;;;;;3.22;1.10;;;;;;;15.96;78.59;101205.38;5073023;28;20470;-84
2022/08/05 06:05:40;;;;;;;3.90;1.02;;;;;;;15.94;78.97;101206.47;5073261;28;20035;-84
2022/08/05 06:08:05;;;;;;;6.57;1.52;;;;;;;15.94;78.81;101206.47;5072957;28;20036;-84
2022/08/05 06:10:32;;;;;;;5.50;1.17;;;;;;;16.11;78.28;101211.25;5060834;28;20106;-83
2022/08/05 06:12:58;;;;;;;6.00;0.80;;;;;;;16.04;78.48;101207.44;5052875;28;20029;-84
2022/08/05 06:15:23;;;;;;;4.35;0.80;;;;;;;16.24;77.50;101205.84;5052766;28;20021;-84
2022/08/05 06:17:48;;;;;;;8.02;1.30;;;;;;;16.41;76.57;101209.78;5052914;28;20029;-84
2022/08/05 06:20:14;;;;;;;2.92;0.95;;;;;;;16.35;77.25;101203.22;5052871;28;20033;-83
2022/08/05 06:22:39;;;;;;;4.70;0.77;;;;;;;16.50;76.57;101205.59;5052659;28;20090;-82
2022/08/05 06:25:06;;;;;;;5.28;0.88;;;;;;;16.79;75.87;101208.53;5053051;28;20136;-82
2022/08/05 06:27:32;;;;;;;3.28;0.90;;;;;;;16.82;76.01;101210.97;5052808;28;20037;-82
2022/08/05 06:29:57;;;;;;;5.90;1.00;;;;;;;16.71;75.85;101213.63;5052493;28;20048;-82
2022/08/05 06:32:23;;;;;;;1.85;0.55;;;;;;;16.99;75.10;101222.84;5052705;28;20021;-82
2022/08/05 06:34:48;;;;;;;2.20;0.75;;;;;;;17.35;74.10;101218.94;5052488;28;20032;-82
2022/08/05 06:37:13;;;;;;;2.75;0.80;;;;;;;19.01;68.82;101225.81;5052649;28;20083;-83
2022/08/05 06:39:39;;;;;;;4.30;1.20;;;;;;;27.03;42.88;101216.50;5051731;28;20040;-83
2022/08/05 06:42:04;;;;;;;3.17;1.45;;;;;;;31.23;33.96;101214.19;5052463;28;20474;-82
2022/08/05 06:44:30;;;;;;;4.70;0.80;;;;;;;33.10;29.38;101225.59;5052131;28;20029;-82
2022/08/05 06:46:56;;;;;;;4.60;0.75;;;;;;;35.26;26.65;101225.38;5052405;28;20021;-82
2022/08/05 06:49:22;;;;;;;3.70;0.90;;;;;;;36.06;25.04;101218.59;5052254;28;20398;-82
2022/08/05 06:51:47;;;;;;;5.43;1.10;;;;;;;36.86;24.23;101213.44;5052450;28;20033;-83
2022/08/05 06:54:12;;;;;;;;;;;;;;;36.31;23.74;101209.06;5058612;28;20024;-83
2022/08/05 06:56:38;;;;;;;4.30;0.60;;;;;;;36.97;24.08;101214.38;5072251;28;19912;-83
2022/08/05 06:59:04;;;;;;;4.97;0.80;;;;;;;37.45;22.84;101218.00;5071884;28;20257;-83
2022/08/05 07:01:30;;;;;;;6.88;0.50;;;;;;;39.17;21.25;101211.66;5061700;28;20033;-83
2022/08/05 07:03:55;;;;;;;3.30;0.65;;;;;;;39.26;20.91;101223.72;5069209;28;20474;-84
2022/08/05 07:06:22;;;;;;;4.72;0.90;;;;;;;40.68;19.85;101232.75;5067036;28;20067;-84
2022/08/05 07:08:47;;;;;;;;;;;;;;;41.75;18.83;101236.47;5059161;28;20101;-83
2022/08/05 07:11:12;;;;;;;;;;;;;;;42.09;18.70;101230.81;5072240;28;20410;-84
2022/08/05 07:19:05;;;;;;;;;;;;;;;40.24;19.96;101229.72;5080119;28;19961;-84
2022/08/05 07:21:30;;;;;;;;;;;;;;;41.73;18.41;101231.28;5092220;28;19916;-83
2022/08/05 07:23:56;;;;;;;;;;;;;;;42.00;17.84;101238.06;5067028;28;19917;-83
2022/08/05 07:26:21;;;;;;;3.43;0.90;;;;;;;41.69;18.40;101241.25;5057927;28;19919;-84
2022/08/05 07:28:47;;;;;;;2.67;0.65;;;;;;;41.49;18.56;101233.16;5059572;28;20593;-83
2022/08/05 07:31:12;;;;;;;6.28;1.00;;;;;;;43.54;17.29;101236.44;5051334;28;20055;-83
2022/08/05 07:33:38;;;;;;;3.10;0.82;;;;;;;41.88;18.12;101240.44;5071341;28;20402;-84
2022/08/05 07:36:04;;;;;;;4.60;1.52;;;;;;;41.27;18.95;101237.25;5060127;28;20063;-84
2022/08/05 07:38:29;;;;;;;4.78;1.85;;;;;;;41.18;18.41;101239.81;5056590;28;20020;-84
2022/08/05 07:40:55;;;;;;;5.13;1.17;;;;;;;40.56;18.24;101241.38;5060837;28;20025;-84
2022/08/05 07:43:20;;;;;;;6.15;0.73;;;;;;;39.67;19.77;101239.31;5059364;28;20486;-85
2022/08/05 07:45:46;;;;;;;5.38;0.50;;;;;;;39.76;19.17;101229.38;5054615;28;20029;-84
2022/08/05 07:48:11;;;;;;;3.22;0.63;;;;;;;42.75;17.15;101219.91;5051709;28;20025;-84
2022/08/05 07:50:37;;;;;;;3.63;0.85;;;;;;;41.90;17.75;101235.47;5077915;28;20043;-84
2022/08/05 07:53:02;;;;;;;6.88;0.93;;;;;;;40.15;18.89;101256.19;5067870;28;20032;-85
2022/08/05 07:55:30;;;;;;;4.40;0.60;;;;;;;42.03;17.92;101259.59;5056434;28;20304;-84
2022/08/05 07:57:55;;;;;;;3.90;0.60;;;;;;;41.75;17.35;101237.31;5051062;28;20033;-84
2022/08/05 08:00:21;;;;;;;6.35;0.70;;;;;;;40.91;18.14;101195.44;5056218;28;20025;-84
2022/08/05 08:02:46;;;;;;;3.60;1.00;;;;;;;43.56;16.22;101189.16;5067285;28;20025;-84
2022/08/05 08:05:11;;;;;;;2.83;0.82;;;;;;;43.93;16.31;101176.22;5068000;28;20025;-85
2022/08/05 08:07:37;;;;;;;3.38;0.68;;;;;;;43.15;16.18;101167.81;5065533;28;20024;-84
2022/08/05 08:10:03;;;;;;;4.03;0.68;;;;;;;40.44;18.27;101230.72;5079407;28;20506;-84
2022/08/05 08:12:29;;;;;;;5.60;1.17;;;;;;;39.95;18.58;101264.53;5071428;28;20024;-85
2022/08/05 08:14:55;;;;;;;3.42;0.85;;;;;;;42.01;16.64;101259.03;5061256;28;20035;-85
2022/08/05 08:17:20;;;;;;;5.80;0.88;;;;;;;41.51;17.51;101192.34;5063758;28;20470;-85
2022/08/05 08:19:46;;;;;;;3.25;0.73;;;;;;;39.42;18.59;101144.03;5056967;28;20459;-85
2022/08/05 08:22:11;;;;;;;4.85;0.57;;;;;;;39.71;18.60;101129.63;5068588;28;20032;-85
2022/08/05 08:24:37;;;;;;;4.38;0.65;;;;;;;41.47;17.47;101224.38;5060179;28;20028;-85
2022/08/05 08:27:03;;;;;;;3.83;0.98;;;;;;;41.86;17.31;101259.25;5053818;28;20072;-85
2022/08/05 08:29:28;;;;;;;;;;;;;;;40.10;18.87;101263.66;5072803;28;20029;-85
2022/08/05 08:31:54;;;;;;;5.77;1.57;;;;;;;42.06;16.92;101206.56;5058887;28;20396;-85
2022/08/05 08:34:21;;;;;;;3.05;0.80;;;;;;;40.96;17.87;101132.88;5057906;28;20481;-85
2022/08/05 08:36:47;;;;;;;2.67;0.70;;;;;;;40.77;18.22;101151.25;5061282;28;20032;-85
2022/08/05 08:39:13;;;;;;;3.97;1.10;;;;;;;37.79;19.88;101277.94;5060766;28;20054;-84
2022/08/05 08:41:42;;;;;;;2.78;0.60;;;;;;;38.73;18.96;101283.56;5054125;28;20029;-85
2022/08/05 08:44:09;;;;;;;3.67;0.88;;;;;;;38.15;19.94;101282.81;5053551;28;20025;-85
2022/08/05 08:46:34;;;;;;;2.22;0.70;;;;;;;39.90;18.34;101281.06;5053623;28;20029;-85
2022/08/05 08:49:03;;;;;;;3.53;0.80;;;;;;;42.35;17.50;101277.38;5059902;28;20105;-85
2022/08/05 08:51:32;;;;;;;6.07;0.50;;;;;;;38.99;19.13;101284.44;5055878;28;20037;-85
2022/08/05 08:53:59;;;;;;;3.72;0.88;;;;;;;42.39;16.58;101270.94;5062023;28;20146;-85
2022/08/05 08:56:24;;;;;;;2.90;0.68;;;;;;;40.83;17.48;101283.06;5071942;28;20036;-85
2022/08/05 08:58:51;;;;;;;4.65;0.57;;;;;;;42.12;16.40;101273.53;5064455;28;20505;-85
2022/08/05 09:01:17;;;;;;;3.05;0.60;;;;;;;41.89;16.54;101276.03;5066760;28;20062;-85
2022/08/05 09:03:45;;;;;;;1.63;0.50;;;;;;;42.56;16.06;101273.22;5072562;28;20055;-85
2022/08/05 09:06:10;;;;;;;2.85;0.80;;;;;;;41.83;16.50;101219.28;5071549;28;20035;-85
2022/08/05 09:08:35;;;;;;;4.22;0.60;;;;;;;38.14;18.99;101218.09;5060658;28;20024;-85
2022/08/05 09:11:01;;;;;;;3.58;0.70;;;;;;;39.56;17.92;101240.47;5061839;28;20136;-85
2022/08/05 09:13:27;;;;;;;3.33;0.50;;;;;;;40.23;17.13;101225.34;5071271;28;20059;-85
2022/08/05 09:15:52;;;;;;;5.00;0.70;;;;;;;41.14;16.58;101238.75;5061074;28;20020;-84
2022/08/05 09:18:18;;;;;;;1.85;0.68;;;;;;;40.27;17.69;101275.13;5059588;28;20498;-85
2022/08/05 09:20:44;;;;;;;1.98;0.45;;;;;;;41.33;16.78;101266.38;5063907;28;20036;-85
2022/08/05 09:23:14;;;;;;;5.45;0.88;;;;;;;38.99;17.83;101276.19;5061440;28;20017;-84
2022/08/05 09:25:40;;;;;;;;;;;;;;;40.30;17.75;101273.72;5057323;28;20074;-85
2022/08/05 09:28:10;;;;;;;;;;;;;;;38.88;18.27;101272.59;5063195;28;19920;-84
2022/08/05 09:30:35;;;;;;;;;;;;;;;38.28;18.56;101279.56;5060888;28;19924;-84
2022/08/05 09:33:01;;;;;;;;;;;;;;;38.99;18.56;101273.44;5054311;28;20625;-84
2022/08/05 09:35:26;;;;;;;;;;;;;;;39.82;17.56;101275.00;5061606;28;19920;-84
2022/08/05 09:37:52;;;;;;;;;;;;;;;38.17;18.81;101280.63;5072220;28;20251;-84
2022/08/05 09:40:35;;;;;;;;;;;;;;;36.94;19.53;101285.22;5074239;28;20066;-84
2022/08/05 09:43:00;;;;;;;;;;;;;;;38.38;18.88;101282.34;5064009;28;20275;-85
2022/08/05 09:45:39;;;;;;;;;;;;;;;39.74;17.75;101281.06;5057263;28;19920;-84
2022/08/05 09:48:26;;;;;;;;;;;;;;;40.89;17.44;101285.78;5049171;28;19921;-84
2022/08/05 09:50:53;;;;;;;;;;;;;;;40.97;17.22;101282.41;5048392;28;19971;-85
2022/08/05 09:53:18;;;;;;;;;;;;;;;37.93;18.68;101291.19;5048643;28;19921;-86
2022/08/05 09:55:44;;;;;;;;;;;;;;;40.23;17.79;101293.28;5055449;28;19928;-85
2022/08/05 09:58:10;;;;;;;;;;;;;;;39.51;17.67;101287.16;5048255;28;20429;-85
2022/08/05 10:00:35;;;;;;;;;;;;;;;39.98;17.13;101288.72;5066609;28;19920;-86
2022/08/05 10:03:07;;;;;;;;;;;;;;;39.29;17.85;101299.25;5067494;28;20403;-85
2022/08/05 10:05:32;;;;;;;;;;;;;;;36.57;20.07;101289.47;5067929;28;19925;-86
2022/08/05 10:08:05;;;;;;;;;;;;;;;32.86;23.64;101300.81;5065703;28;19931;-85
2022/08/05 10:10:42;;;;;;;;;;;;;;;34.98;22.32;101300.78;5047977;28;19920;-85
2022/08/05 10:13:08;;;;;;;;;;;;;;;37.11;20.80;101300.44;5055407;28;19974;-85
2022/08/05 10:15:35;;;;;;;;;;;;;;;36.34;20.33;101304.25;5067270;28;19920;-84
2022/08/05 10:18:06;;;;;;;1.92;0.50;;;;;;;38.81;18.47;101301.41;5060652;28;20414;-85
2022/08/05 10:20:35;;;;;;;2.85;0.60;;;;;;;39.45;17.91;101289.09;5048215;28;20119;-85
2022/08/05 10:23:00;;;;;;;3.03;0.80;;;;;;;39.10;18.64;101292.66;5048312;28;20263;-85
2022/08/05 10:25:26;;;;;;;3.33;0.93;;;;;;;35.80;19.67;101306.78;5065268;28;20285;-85
2022/08/05 10:27:52;;;;;;;2.17;0.52;;;;;;;36.42;19.72;101303.00;5067158;28;20082;-85
2022/08/05 10:30:18;;;;;;;4.07;0.63;;;;;;;35.42;20.96;101301.00;5066982;28;20123;-85
2022/08/05 10:32:45;;;;;;;2.42;0.60;;;;;;;31.90;23.80;101304.00;5065516;28;20024;-85
2022/08/05 10:35:11;;;;;;;5.30;0.70;;;;;;;33.17;23.94;101306.03;5062708;28;20509;-85
2022/08/05 10:37:37;;;;;;;1.92;0.50;;;;;;;35.03;21.80;101303.56;5056144;28;20040;-85
2022/08/05 10:40:06;;;;;;;1.58;0.35;;;;;;;35.42;20.94;101311.09;5046765;28;20604;-85
2022/08/05 10:42:35;;;;;;;1.55;0.32;;;;;;;36.91;18.85;101306.56;5052518;28;20386;-85
2022/08/05 10:45:04;;;;;;;3.08;0.55;;;;;;;37.70;19.45;101301.50;5067277;28;20065;-86
2022/08/05 10:47:33;;;;;;;1.83;0.40;;;;;;;37.27;19.57;101297.84;5067018;28;20039;-85
2022/08/05 10:50:11;;;;;;;3.78;0.57;;;;;;;38.01;19.58;101301.63;5062503;28;20032;-85
2022/08/05 10:52:41;;;;;;;3.10;0.80;;;;;;;36.61;23.53;101295.25;5060775;28;20160;-85
2022/08/05 10:55:12;;;;;;;3.15;0.47;;;;;;;35.28;22.27;101313.31;5052858;28;20623;-85
2022/08/05 10:57:40;;;;;;;2.95;0.40;;;;;;;36.37;21.44;101306.47;5066336;28;20032;-85
2022/08/05 11:00:22;;;;;;;1.88;0.45;;;;;;;35.86;23.69;101303.88;5062986;28;20021;-85
2022/08/05 11:03:02;;;;;;;1.92;0.60;;;;;;;37.11;20.55;101321.50;5051196;28;20397;-85
2022/08/05 11:05:29;;;;;;;4.55;0.80;;;;;;;38.48;21.96;101300.75;5057961;28;20020;-85
2022/08/05 11:07:56;;;;;;;6.53;0.50;;;;;;;35.01;22.62;101326.72;5064885;28;20036;-85
2022/08/05 11:10:23;;;;;;;2.08;0.70;;;;;;;35.78;22.06;101326.16;5065677;28;20608;-85
2022/08/05 11:12:48;;;;;;;4.10;0.80;;;;;;;35.42;21.97;101317.38;5064117;28;20108;-86
2022/08/05 11:15:14;;;;;;;1.45;0.38;;;;;;;36.06;21.92;101322.47;5055827;28;20438;-85
2022/08/05 11:17:39;;;;;;;3.35;0.70;;;;;;;36.08;21.11;101316.72;5060895;28;20021;-85
2022/08/05 11:20:07;;;;;;;2.15;0.45;;;;;;;35.12;22.31;101323.13;5069052;28;20029;-84
2022/08/05 11:22:47;;;;;;;3.83;0.55;;;;;;;36.48;21.54;101316.44;5060306;28;20148;-85
2022/08/05 11:25:34;;;;;;;3.33;0.57;;;;;;;36.72;20.45;101325.22;5058213;28;20431;-85
2022/08/05 11:28:10;;;;;;;2.17;0.30;;;;;;;36.52;20.07;101323.06;5061330;28;20016;-84
2022/08/05 11:30:54;;;;;;;5.53;1.00;;;;;;;36.98;20.46;101317.28;5069436;28;20028;-84
2022/08/05 11:33:34;;;;;;;3.92;0.65;;;;;;;36.05;21.65;101325.44;5063731;28;20090;-83
2022/08/05 11:36:04;;;;;;;4.23;0.90;;;;;;;33.24;24.23;101330.44;5060995;28;20024;-83
2022/08/05 11:38:42;;;;;;;2.30;0.77;;;;;;;33.60;23.38;101325.88;5066938;28;20028;-83